Terminal Aerodrome Forecast
Issued by NWS Wakefield, VA

Home | Current Version | Previous Version | Text Only | Print | Product List | Glossary On
Versions: 1 2 3 4 5 6 7 8 9 10 11 12 13 14 15 16
000
FTUS41 KAKQ 042107 AAA
TAFORF
TAF AMD
KORF 042107Z 0421/0518 05011KT P6SM SCT015
      TEMPO 0421/0424 BKN015
     FM050500 05009KT P6SM BKN025
     FM050900 05010KT 4SM BR OVC015
     FM051400 05012G17KT P6SM BKN025=

USA.gov is the U.S. government's official web portal to all federal, state and local government web resources and services.